Time,TemperatureF,DewpointF,PressureIn,WindDirection,WindDirectionDegrees,WindSpeedMPH,WindSpeedGustMPH,Humidity,HourlyPrecipIn,Conditions,Clouds,dailyrainin,SoftwareType,DateUTC
2013-04-13 00:03:00,39.0,39.0,29.90,WNW,290,7.0,9.0,99,0.02,,,0.02,,2013-04-13 04:03:00,
2013-04-13 00:12:00,39.0,39.0,29.90,WNW,290,7.0,9.0,99,0.02,,,0.02,,2013-04-13 04:12:00,
2013-04-13 00:23:00,39.0,39.0,29.90,West,278,6.0,10.0,99,0.01,,,0.02,,2013-04-13 04:23:00,
2013-04-13 00:33:00,40.0,40.0,29.90,West,279,7.0,9.0,99,0.00,,,0.02,,2013-04-13 04:33:00,
2013-04-13 00:42:00,40.0,40.0,29.90,West,279,7.0,9.0,99,0.00,,,0.02,,2013-04-13 04:42:00,
2013-04-13 00:53:00,40.0,40.0,29.90,WSW,257,7.0,8.0,99,0.00,,,0.02,,2013-04-13 04:53:00,
2013-04-13 01:02:00,40.0,40.0,29.91,West,276,8.0,14.0,99,0.00,,,0.02,,2013-04-13 05:02:00,
2013-04-13 01:12:00,40.0,40.0,29.91,West,276,8.0,14.0,99,0.00,,,0.02,,2013-04-13 05:12:00,
2013-04-13 01:22:00,41.0,41.0,29.91,WNW,288,9.0,16.0,99,0.00,,,0.02,,2013-04-13 05:22:00,
2013-04-13 01:32:00,41.0,41.0,29.91,West,277,8.0,14.0,99,0.00,,,0.02,,2013-04-13 05:32:00,
2013-04-13 01:42:00,41.0,41.0,29.91,West,277,8.0,14.0,99,0.00,,,0.02,,2013-04-13 05:42:00,
2013-04-13 01:52:00,41.0,41.0,29.92,West,271,8.0,13.0,99,0.00,,,0.02,,2013-04-13 05:52:00,
2013-04-13 02:02:00,41.0,41.0,29.91,West,272,6.0,10.0,99,0.00,,,0.02,,2013-04-13 06:02:00,
2013-04-13 02:12:00,41.0,41.0,29.91,West,272,6.0,10.0,99,0.00,,,0.02,,2013-04-13 06:12:00,
2013-04-13 02:23:00,41.0,41.0,29.91,WNW,290,8.0,15.0,99,0.00,,,0.02,,2013-04-13 06:23:00,
2013-04-13 02:34:00,41.0,41.0,29.91,WSW,258,8.0,9.0,99,0.00,,,0.02,,2013-04-13 06:34:00,
2013-04-13 02:45:00,41.0,41.0,29.91,WSW,258,8.0,9.0,99,0.00,,,0.02,,2013-04-13 06:45:00,
2013-04-13 02:53:00,41.0,41.0,29.91,West,265,10.0,14.0,99,0.00,,,0.02,,2013-04-13 06:53:00,
2013-04-13 03:05:00,41.0,40.0,29.91,West,269,8.0,9.0,98,0.00,,,0.02,,2013-04-13 07:05:00,
2013-04-13 03:14:00,41.0,40.0,29.91,West,269,8.0,9.0,98,0.00,,,0.02,,2013-04-13 07:14:00,
2013-04-13 03:23:00,41.0,40.0,29.92,West,271,8.0,12.0,98,0.00,,,0.02,,2013-04-13 07:23:00,
2013-04-13 03:34:00,41.0,40.0,29.92,West,272,8.0,16.0,98,0.00,,,0.02,,2013-04-13 07:34:00,
2013-04-13 03:44:00,41.0,40.0,29.92,West,272,8.0,16.0,98,0.00,,,0.02,,2013-04-13 07:44:00,
2013-04-13 03:54:00,41.0,40.0,29.91,WNW,283,8.0,14.0,97,0.00,,,0.02,,2013-04-13 07:54:00,
2013-04-13 04:06:00,41.0,40.0,29.91,West,278,9.0,15.0,97,0.00,,,0.02,,2013-04-13 08:06:00,
2013-04-13 04:14:00,41.0,40.0,29.91,West,278,9.0,15.0,97,0.00,,,0.02,,2013-04-13 08:14:00,
2013-04-13 04:25:00,41.0,40.0,29.91,WNW,294,10.0,16.0,96,0.00,,,0.02,,2013-04-13 08:25:00,
2013-04-13 04:34:00,41.0,40.0,29.91,WNW,290,9.0,14.0,96,0.00,,,0.02,,2013-04-13 08:34:00,
2013-04-13 04:45:00,41.0,40.0,29.91,WNW,290,9.0,14.0,96,0.00,,,0.02,,2013-04-13 08:45:00,
2013-04-13 04:53:00,41.0,40.0,29.91,WNW,291,10.0,12.0,96,0.00,,,0.02,,2013-04-13 08:53:00,
2013-04-13 05:05:00,41.0,40.0,29.91,WNW,295,10.0,16.0,96,0.00,,,0.02,,2013-04-13 09:05:00,
2013-04-13 05:14:00,41.0,40.0,29.91,WNW,295,10.0,16.0,96,0.00,,,0.02,,2013-04-13 09:14:00,
2013-04-13 05:24:00,41.0,40.0,29.91,West,274,10.0,17.0,96,0.00,,,0.02,,2013-04-13 09:24:00,
2013-04-13 05:36:00,41.0,40.0,29.91,West,266,9.0,14.0,96,0.00,,,0.02,,2013-04-13 09:36:00,
2013-04-13 05:48:00,41.0,40.0,29.91,West,266,9.0,14.0,96,0.00,,,0.02,,2013-04-13 09:48:00,
2013-04-13 05:53:00,41.0,40.0,29.91,West,278,10.0,14.0,95,0.00,,,0.02,,2013-04-13 09:53:00,
2013-04-13 06:05:00,41.0,40.0,29.91,West,272,8.0,16.0,95,0.00,,,0.02,,2013-04-13 10:05:00,
2013-04-13 06:15:00,41.0,39.0,29.91,West,278,10.0,16.0,94,0.00,,,0.02,,2013-04-13 10:15:00,
2013-04-13 06:24:00,41.0,39.0,29.91,West,278,10.0,16.0,94,0.00,,,0.02,,2013-04-13 10:24:00,
2013-04-13 06:36:00,41.0,40.0,29.91,West,273,12.0,20.0,95,0.00,,,0.02,,2013-04-13 10:36:00,
2013-04-13 06:45:00,41.0,40.0,29.91,West,273,12.0,20.0,95,0.00,,,0.02,,2013-04-13 10:45:00,
2013-04-13 06:53:00,41.0,39.0,29.91,WNW,283,13.0,18.0,94,0.00,,,0.02,,2013-04-13 10:53:00,
2013-04-13 07:05:00,41.0,39.0,29.91,WNW,290,13.0,17.0,93,0.00,,,0.02,,2013-04-13 11:05:00,
2013-04-13 07:13:00,41.0,39.0,29.91,WNW,290,13.0,17.0,93,0.00,,,0.02,,2013-04-13 11:13:00,
2013-04-13 07:34:00,41.0,39.0,29.91,West,280,13.0,20.0,93,0.00,,,0.02,,2013-04-13 11:34:00,
2013-04-13 07:44:00,41.0,39.0,29.91,West,280,13.0,20.0,93,0.00,,,0.02,,2013-04-13 11:44:00,
2013-04-13 07:53:00,41.0,39.0,29.91,WNW,283,8.0,15.0,92,0.00,,,0.02,,2013-04-13 11:53:00,
2013-04-13 08:08:00,41.0,39.0,29.92,West,281,9.0,15.0,91,0.00,,,0.02,,2013-04-13 12:08:00,
2013-04-13 08:14:00,41.0,39.0,29.92,West,281,9.0,15.0,91,0.00,,,0.02,,2013-04-13 12:14:00,
2013-04-13 08:24:00,41.0,38.0,29.92,West,269,8.0,10.0,89,0.00,,,0.02,,2013-04-13 12:24:00,
2013-04-13 08:35:00,41.0,38.0,29.92,West,268,7.0,13.0,88,0.00,,,0.02,,2013-04-13 12:35:00,
2013-04-13 08:45:00,41.0,38.0,29.92,West,268,7.0,13.0,88,0.00,,,0.02,,2013-04-13 12:45:00,
2013-04-13 09:05:00,41.0,37.0,29.92,WNW,284,8.0,15.0,87,0.00,,,0.02,,2013-04-13 13:05:00,
2013-04-13 09:14:00,41.0,37.0,29.92,WNW,284,8.0,15.0,87,0.00,,,0.02,,2013-04-13 13:14:00,
2013-04-13 09:25:00,41.0,37.0,29.93,WNW,284,10.0,16.0,86,0.00,,,0.02,,2013-04-13 13:25:00,
2013-04-13 09:34:00,41.0,37.0,29.92,WNW,296,8.0,13.0,84,0.00,,,0.02,,2013-04-13 13:34:00,
2013-04-13 09:53:00,41.0,37.0,29.93,WNW,292,12.0,15.0,84,0.00,,,0.02,,2013-04-13 13:53:00,
2013-04-13 10:04:00,41.0,37.0,29.93,WNW,293,9.0,12.0,85,0.00,,,0.02,,2013-04-13 14:04:00,
2013-04-13 10:14:00,41.0,37.0,29.93,WNW,293,9.0,12.0,85,0.00,,,0.02,,2013-04-13 14:14:00,
2013-04-13 10:23:00,41.0,37.0,29.93,WNW,290,10.0,13.0,86,0.00,,,0.02,,2013-04-13 14:23:00,
2013-04-13 10:45:00,41.0,37.0,29.93,NW,312,13.0,16.0,87,0.00,,,0.02,,2013-04-13 14:45:00,
2013-04-13 10:54:00,41.0,38.0,29.94,WNW,298,13.0,16.0,88,0.00,,,0.02,,2013-04-13 14:54:00,
2013-04-13 11:04:00,41.0,38.0,29.95,WNW,292,13.0,17.0,88,0.00,,,0.02,,2013-04-13 15:04:00,
2013-04-13 11:14:00,41.0,38.0,29.95,WNW,292,13.0,17.0,88,0.00,,,0.02,,2013-04-13 15:14:00,
2013-04-13 11:35:00,41.0,37.0,29.96,NW,308,12.0,16.0,87,0.00,,,0.02,,2013-04-13 15:35:00,
2013-04-13 11:43:00,41.0,37.0,29.96,NW,308,12.0,16.0,87,0.00,,,0.02,,2013-04-13 15:43:00,
2013-04-13 11:54:00,41.0,37.0,29.97,NW,321,15.0,20.0,87,0.00,,,0.02,,2013-04-13 15:54:00,
2013-04-13 12:14:00,39.0,36.0,29.98,NW,309,9.0,21.0,88,0.00,,,0.02,,2013-04-13 16:14:00,
2013-04-13 12:24:00,39.0,36.0,29.98,NW,324,9.0,15.0,90,0.00,,,0.02,,2013-04-13 16:24:00,
2013-04-13 12:35:00,40.0,36.0,29.98,NW,307,10.0,16.0,87,0.00,,,0.02,,2013-04-13 16:35:00,
2013-04-13 12:53:00,40.0,37.0,29.98,NNW,328,8.0,18.0,88,0.00,,,0.02,,2013-04-13 16:53:00,
2013-04-13 13:06:00,40.0,36.0,29.99,NW,326,7.0,10.0,87,0.00,,,0.02,,2013-04-13 17:06:00,
2013-04-13 13:20:00,40.0,36.0,29.99,NW,326,7.0,10.0,87,0.00,,,0.02,,2013-04-13 17:20:00,
2013-04-13 13:37:00,42.0,37.0,30.00,NW,316,14.0,18.0,83,0.00,,,0.02,,2013-04-13 17:37:00,
2013-04-13 13:43:00,42.0,37.0,30.00,NW,316,14.0,18.0,83,0.00,,,0.02,,2013-04-13 17:43:00,
2013-04-13 13:57:00,41.0,37.0,30.00,WNW,299,16.0,23.0,84,0.00,,,0.02,,2013-04-13 17:57:00,
2013-04-13 14:05:00,42.0,37.0,30.00,WNW,300,12.0,20.0,82,0.00,,,0.02,,2013-04-13 18:05:00,
2013-04-13 14:14:00,42.0,37.0,30.00,WNW,300,12.0,20.0,82,0.00,,,0.02,,2013-04-13 18:14:00,
2013-04-13 14:24:00,43.0,37.0,30.00,WNW,301,14.0,20.0,78,0.00,,,0.02,,2013-04-13 18:24:00,
2013-04-13 14:32:00,44.0,36.0,30.00,NNW,329,7.0,7.0,74,0.00,,,0.02,,2013-04-13 18:32:00,
2013-04-13 14:42:00,44.0,36.0,30.00,NNW,329,7.0,7.0,74,0.00,,,0.02,,2013-04-13 18:42:00,
2013-04-13 14:52:00,44.0,36.0,30.00,WNW,293,9.0,14.0,73,0.00,,,0.02,,2013-04-13 18:52:00,
2013-04-13 15:03:00,45.0,37.0,30.00,West,269,12.0,17.0,74,0.00,,,0.02,,2013-04-13 19:03:00,
2013-04-13 15:12:00,45.0,37.0,30.00,West,269,12.0,17.0,74,0.00,,,0.02,,2013-04-13 19:12:00,
2013-04-13 15:22:00,45.0,37.0,30.00,West,277,12.0,16.0,72,0.00,,,0.02,,2013-04-13 19:22:00,
2013-04-13 15:32:00,45.0,37.0,30.00,WNW,301,6.0,15.0,73,0.00,,,0.02,,2013-04-13 19:32:00,
2013-04-13 15:42:00,45.0,37.0,30.00,WNW,301,6.0,15.0,73,0.00,,,0.02,,2013-04-13 19:42:00,
2013-04-13 15:52:00,45.0,37.0,30.00,WNW,301,6.0,15.0,73,0.00,,,0.02,,2013-04-13 19:52:00,
2013-04-13 16:02:00,46.0,37.0,30.00,NW,319,10.0,15.0,71,0.00,,,0.02,,2013-04-13 20:02:00,
2013-04-13 16:12:00,46.0,37.0,30.00,NW,319,10.0,15.0,71,0.00,,,0.02,,2013-04-13 20:12:00,
2013-04-13 16:22:00,46.0,37.0,29.99,WNW,292,13.0,16.0,70,0.00,,,0.02,,2013-04-13 20:22:00,
2013-04-13 16:32:00,47.0,37.0,29.99,WNW,294,7.0,10.0,69,0.00,,,0.02,,2013-04-13 20:32:00,
2013-04-13 16:42:00,47.0,37.0,29.99,WNW,294,7.0,10.0,69,0.00,,,0.02,,2013-04-13 20:42:00,
2013-04-13 16:52:00,47.0,38.0,29.99,WNW,291,5.0,8.0,70,0.00,,,0.02,,2013-04-13 20:52:00,
2013-04-13 17:02:00,47.0,38.0,29.99,WNW,282,10.0,18.0,70,0.00,,,0.02,,2013-04-13 21:02:00,
2013-04-13 17:12:00,47.0,38.0,29.99,WNW,282,10.0,18.0,70,0.00,,,0.02,,2013-04-13 21:12:00,
2013-04-13 17:22:00,48.0,38.0,29.99,WNW,288,12.0,14.0,67,0.00,,,0.02,,2013-04-13 21:22:00,
2013-04-13 17:32:00,49.0,39.0,29.99,WNW,287,13.0,18.0,67,0.00,,,0.02,,2013-04-13 21:32:00,
2013-04-13 17:43:00,49.0,39.0,29.99,WNW,287,13.0,18.0,67,0.00,,,0.02,,2013-04-13 21:43:00,
2013-04-13 17:52:00,48.0,38.0,29.98,WSW,256,2.0,8.0,67,0.00,,,0.02,,2013-04-13 21:52:00,
2013-04-13 18:03:00,48.0,38.0,29.98,West,278,5.0,13.0,67,0.00,,,0.02,,2013-04-13 22:03:00,
2013-04-13 18:12:00,48.0,38.0,29.98,West,278,5.0,13.0,67,0.00,,,0.02,,2013-04-13 22:12:00,
2013-04-13 18:22:00,48.0,38.0,29.98,West,269,9.0,20.0,68,0.00,,,0.02,,2013-04-13 22:22:00,
2013-04-13 18:33:00,48.0,38.0,29.98,WSW,257,7.0,10.0,68,0.00,,,0.02,,2013-04-13 22:33:00,
2013-04-13 18:42:00,48.0,38.0,29.98,WSW,257,7.0,10.0,68,0.00,,,0.02,,2013-04-13 22:42:00,
2013-04-13 18:52:00,48.0,38.0,29.99,West,274,9.0,12.0,69,0.00,,,0.02,,2013-04-13 22:52:00,
2013-04-13 19:02:00,48.0,38.0,29.98,West,264,9.0,13.0,68,0.00,,,0.02,,2013-04-13 23:02:00,
2013-04-13 19:12:00,47.0,37.0,29.98,WNW,288,7.0,13.0,69,0.00,,,0.02,,2013-04-13 23:12:00,
2013-04-13 19:22:00,47.0,37.0,29.98,WNW,288,7.0,13.0,69,0.00,,,0.02,,2013-04-13 23:22:00,
2013-04-13 19:32:00,47.0,37.0,29.98,West,281,10.0,15.0,68,0.00,,,0.02,,2013-04-13 23:32:00,
2013-04-13 19:41:00,47.0,37.0,29.98,West,281,10.0,15.0,68,0.00,,,0.02,,2013-04-13 23:41:00,
2013-04-13 19:52:00,48.0,38.0,29.98,WNW,292,8.0,13.0,68,0.00,,,0.02,,2013-04-13 23:52:00,
2013-04-13 20:02:00,47.0,38.0,29.98,WNW,290,5.0,6.0,70,0.00,,,0.02,,2013-04-14 00:02:00,
2013-04-13 20:12:00,47.0,38.0,29.98,WNW,290,5.0,6.0,70,0.00,,,0.02,,2013-04-14 00:12:00,
2013-04-13 20:22:00,47.0,38.0,29.98,West,272,0.0,0.0,71,0.00,,,0.02,,2013-04-14 00:22:00,
2013-04-13 20:32:00,46.0,37.0,29.98,West,265,6.0,12.0,72,0.00,,,0.02,,2013-04-14 00:32:00,
2013-04-13 20:42:00,46.0,37.0,29.98,West,265,6.0,12.0,72,0.00,,,0.02,,2013-04-14 00:42:00,
2013-04-13 20:52:00,46.0,37.0,29.98,West,275,5.0,7.0,72,0.00,,,0.02,,2013-04-14 00:52:00,
2013-04-13 21:02:00,46.0,38.0,29.99,West,261,0.0,0.0,74,0.00,,,0.02,,2013-04-14 01:02:00,
2013-04-13 21:12:00,46.0,38.0,29.99,West,261,0.0,0.0,74,0.00,,,0.02,,2013-04-14 01:12:00,
2013-04-13 21:22:00,46.0,39.0,29.99,West,261,0.0,0.0,76,0.00,,,0.02,,2013-04-14 01:22:00,
2013-04-13 21:32:00,45.0,39.0,29.99,West,261,0.0,0.0,79,0.00,,,0.02,,2013-04-14 01:32:00,
2013-04-13 21:42:00,45.0,39.0,29.99,West,261,0.0,0.0,79,0.00,,,0.02,,2013-04-14 01:42:00,
2013-04-13 21:53:00,44.0,38.0,29.98,West,261,0.0,0.0,79,0.00,,,0.02,,2013-04-14 01:53:00,
2013-04-13 22:02:00,44.0,39.0,29.98,West,261,0.0,0.0,81,0.00,,,0.02,,2013-04-14 02:02:00,
2013-04-13 22:12:00,44.0,39.0,29.99,West,261,0.0,0.0,83,0.00,,,0.02,,2013-04-14 02:12:00,
2013-04-13 22:22:00,44.0,39.0,29.99,West,261,0.0,0.0,83,0.00,,,0.02,,2013-04-14 02:22:00,
2013-04-13 22:32:00,44.0,39.0,30.00,West,261,0.0,0.0,84,0.00,,,0.02,,2013-04-14 02:32:00,
2013-04-13 22:42:00,44.0,39.0,30.00,West,261,0.0,0.0,84,0.00,,,0.02,,2013-04-14 02:42:00,
2013-04-13 22:52:00,44.0,39.0,29.99,West,261,0.0,0.0,84,0.00,,,0.02,,2013-04-14 02:52:00,
2013-04-13 23:02:00,44.0,40.0,29.98,West,261,0.0,0.0,86,0.00,,,0.02,,2013-04-14 03:02:00,
2013-04-13 23:12:00,44.0,40.0,29.98,West,261,0.0,0.0,86,0.00,,,0.02,,2013-04-14 03:12:00,
2013-04-13 23:22:00,44.0,40.0,29.99,West,261,0.0,0.0,86,0.00,,,0.01,,2013-04-14 03:22:00,
2013-04-13 23:33:00,44.0,41.0,29.99,West,261,0.0,0.0,88,0.00,,,0.00,,2013-04-14 03:33:00,
2013-04-13 23:42:00,44.0,41.0,29.99,West,261,0.0,0.0,88,0.00,,,0.00,,2013-04-14 03:42:00,
2013-04-13 23:53:00,44.0,41.0,29.99,West,261,0.0,0.0,90,0.00,,,0.00,,2013-04-14 03:53:00,